createdAt,value
2019-05-11T00:02:06.873Z,99.90
2019-05-11T00:04:36.515Z,99.90
2019-05-11T00:07:06.429Z,99.90
2019-05-11T00:09:36.760Z,99.90
2019-05-11T00:12:07.703Z,99.90
2019-05-11T00:14:37.299Z,99.90
2019-05-11T00:17:07.640Z,99.90
2019-05-11T00:19:37.586Z,99.90
2019-05-11T00:22:07.122Z,99.90
2019-05-11T00:24:36.671Z,99.90
2019-05-11T00:27:06.287Z,99.90
2019-05-11T00:29:36.175Z,99.90
2019-05-11T00:32:06.506Z,99.90
2019-05-11T00:34:36.035Z,99.90
2019-05-11T00:37:05.577Z,99.90
2019-05-11T00:39:35.176Z,99.90
2019-05-11T00:42:05.188Z,99.90
2019-05-11T00:44:35.067Z,99.90
2019-05-11T00:47:04.750Z,99.90
2019-05-11T00:49:34.314Z,99.90
2019-05-11T00:52:04.135Z,99.90
2019-05-11T00:54:33.805Z,99.90
2019-05-11T00:57:03.469Z,99.90
2019-05-11T00:59:33.382Z,99.90
2019-05-11T01:02:02.985Z,99.90
2019-05-11T01:04:32.544Z,99.90
2019-05-11T01:07:02.201Z,99.90
2019-05-11T01:09:32.098Z,99.90
2019-05-11T01:12:20.473Z,99.90
2019-05-11T01:14:50.072Z,99.90
2019-05-11T01:17:19.575Z,99.90
2019-05-11T01:19:49.112Z,99.90
2019-05-11T01:22:18.713Z,99.90
2019-05-11T01:24:48.488Z,99.90
2019-05-11T01:27:17.653Z,99.90
2019-05-11T01:29:47.512Z,99.90
2019-05-11T01:32:17.423Z,99.90
2019-05-11T01:34:46.727Z,99.90
2019-05-11T01:37:16.986Z,99.90
2019-05-11T01:39:46.500Z,99.90
2019-05-11T01:42:16.032Z,99.90
2019-05-11T01:44:45.589Z,99.90
2019-05-11T01:47:15.188Z,99.90
2019-05-11T01:49:44.350Z,99.90
2019-05-11T01:52:14.001Z,99.90
2019-05-11T01:54:43.160Z,99.90
2019-05-11T01:57:12.323Z,99.90
2019-05-11T01:59:42.479Z,99.90
2019-05-11T02:02:12.373Z,99.90
2019-05-11T02:04:41.553Z,99.90
2019-05-11T02:07:11.402Z,99.90
2019-05-11T02:09:41.025Z,99.90
2019-05-11T02:12:10.260Z,99.90
2019-05-11T02:14:39.908Z,99.90
2019-05-11T02:17:09.503Z,99.90
2019-05-11T02:19:38.941Z,99.90
2019-05-11T02:22:08.521Z,99.90
2019-05-11T02:24:38.568Z,99.90
2019-05-11T02:27:08.152Z,99.90
2019-05-11T02:29:41.344Z,99.90
2019-05-11T02:32:09.467Z,99.90
2019-05-11T02:34:39.419Z,99.90
2019-05-11T02:37:09.394Z,99.90
2019-05-11T02:39:39.071Z,99.90
2019-05-11T02:42:08.990Z,99.90
2019-05-11T02:44:39.363Z,99.90
2019-05-11T02:47:09.602Z,99.90
2019-05-11T02:49:39.599Z,99.90
2019-05-11T02:52:08.933Z,99.90
2019-05-11T02:54:39.196Z,99.90
2019-05-11T02:57:08.782Z,99.90
2019-05-11T02:59:38.032Z,99.90
2019-05-11T03:02:08.264Z,99.90
2019-05-11T03:04:37.591Z,99.90
2019-05-11T03:07:07.160Z,99.90
2019-05-11T03:09:37.201Z,99.90
2019-05-11T03:12:06.802Z,99.90
2019-05-11T03:14:36.797Z,99.90
2019-05-11T03:17:16.053Z,99.90
2019-05-11T03:19:45.624Z,99.90
2019-05-11T03:22:14.918Z,99.90
2019-05-11T03:24:44.506Z,99.90
2019-05-11T03:27:14.151Z,99.90
2019-05-11T03:29:43.433Z,99.90
2019-05-11T03:32:13.007Z,99.90
2019-05-11T03:34:42.614Z,99.90
2019-05-11T03:37:12.657Z,99.90
2019-05-11T03:39:41.915Z,99.90
2019-05-11T03:42:14.703Z,99.90
2019-05-11T03:44:42.446Z,99.90
2019-05-11T03:47:12.393Z,99.90
2019-05-11T03:49:42.667Z,99.90
2019-05-11T03:52:12.297Z,99.90
2019-05-11T03:54:42.026Z,99.90
2019-05-11T03:57:12.196Z,99.90
2019-05-11T03:59:41.460Z,99.90
2019-05-11T04:02:11.735Z,99.90
2019-05-11T04:04:41.620Z,99.90
2019-05-11T04:07:11.162Z,99.90
2019-05-11T04:09:41.671Z,99.90
2019-05-11T04:12:11.198Z,99.90
2019-05-11T04:14:41.101Z,99.90
2019-05-11T04:17:11.201Z,99.90
2019-05-11T04:19:41.730Z,99.90
2019-05-11T04:22:11.799Z,99.90
2019-05-11T04:24:41.689Z,99.90
2019-05-11T04:27:10.950Z,99.90
2019-05-11T04:29:40.649Z,99.90
2019-05-11T04:32:10.529Z,99.90
2019-05-11T04:34:39.808Z,99.90
2019-05-11T04:37:10.059Z,99.90
2019-05-11T04:39:39.723Z,99.90
2019-05-11T04:42:09.776Z,99.90
2019-05-11T04:44:39.827Z,99.90
2019-05-11T04:47:09.120Z,99.90
2019-05-11T04:49:39.041Z,99.90
2019-05-11T04:52:08.278Z,99.90
2019-05-11T04:54:38.250Z,99.90
2019-05-11T04:57:07.906Z,99.90
2019-05-11T04:59:37.136Z,99.90
2019-05-11T05:02:06.662Z,99.90
2019-05-11T05:04:36.558Z,99.90
2019-05-11T05:07:10.604Z,99.90
2019-05-11T05:09:42.983Z,99.90
2019-05-11T05:12:13.970Z,99.90
2019-05-11T05:14:40.959Z,99.90
2019-05-11T05:17:10.799Z,99.90
2019-05-11T05:19:40.712Z,99.90
2019-05-11T05:22:09.892Z,99.90
2019-05-11T05:24:39.496Z,99.90
2019-05-11T05:27:09.126Z,99.90
2019-05-11T05:29:38.374Z,99.90
2019-05-11T05:32:07.683Z,99.90
2019-05-11T05:34:37.337Z,99.90
2019-05-11T05:37:07.412Z,99.90
2019-05-11T05:39:36.774Z,99.90
2019-05-11T05:42:06.458Z,99.90
2019-05-11T05:44:36.581Z,99.90
2019-05-11T05:47:06.609Z,99.90
2019-05-11T05:49:36.221Z,99.90
2019-05-11T05:52:06.238Z,99.90
2019-05-11T05:54:35.782Z,99.90
2019-05-11T05:57:05.028Z,99.90
2019-05-11T05:59:34.651Z,99.90
2019-05-11T06:02:05.221Z,99.90
2019-05-11T06:04:35.215Z,99.90
2019-05-11T06:07:05.125Z,99.90
2019-05-11T06:09:34.348Z,99.90
2019-05-11T06:12:03.851Z,99.90
2019-05-11T06:14:33.609Z,99.90
2019-05-11T06:17:03.163Z,99.90
2019-05-11T06:19:32.687Z,99.90
2019-05-11T06:22:02.724Z,99.90
2019-05-11T06:24:32.716Z,99.90
2019-05-11T06:27:02.339Z,99.90
2019-05-11T06:29:32.155Z,99.90
2019-05-11T06:32:02.831Z,99.90
2019-05-11T06:34:32.124Z,99.90
2019-05-11T06:37:01.625Z,99.90
2019-05-11T06:39:31.281Z,99.90
2019-05-11T06:42:00.900Z,99.90
2019-05-11T06:44:30.444Z,99.90
2019-05-11T06:47:00.068Z,99.90
2019-05-11T06:49:29.674Z,99.90
2019-05-11T06:51:59.625Z,99.90
2019-05-11T06:54:29.197Z,99.90
2019-05-11T06:56:58.801Z,99.90
2019-05-11T06:59:28.300Z,99.90
2019-05-11T07:01:58.237Z,99.90
2019-05-11T07:04:27.489Z,99.90
2019-05-11T07:06:56.721Z,99.90
2019-05-11T07:09:26.266Z,99.90
2019-05-11T07:11:56.111Z,99.90
2019-05-11T07:14:25.636Z,99.90
2019-05-11T07:16:55.692Z,99.90
2019-05-11T07:19:25.348Z,99.90
2019-05-11T07:21:55.300Z,99.90
2019-05-11T07:24:24.789Z,99.90
2019-05-11T07:26:54.116Z,99.90
2019-05-11T07:29:23.581Z,99.90
2019-05-11T07:31:53.864Z,99.90
2019-05-11T07:34:23.190Z,99.90
2019-05-11T07:36:53.080Z,99.90
2019-05-11T07:39:23.299Z,99.90
2019-05-11T07:41:52.649Z,99.90
2019-05-11T07:44:34.945Z,99.90
2019-05-11T07:46:54.532Z,99.90
2019-05-11T07:49:23.866Z,99.90
2019-05-11T07:51:53.175Z,99.90
2019-05-11T07:54:22.587Z,99.90
2019-05-11T07:56:52.342Z,99.90
2019-05-11T07:59:22.369Z,99.90
2019-05-11T08:01:51.973Z,99.90
2019-05-11T08:04:22.006Z,99.90
2019-05-11T08:06:51.425Z,99.90
2019-05-11T08:09:20.818Z,99.90
2019-05-11T08:11:50.850Z,99.90
2019-05-11T08:14:20.457Z,99.90
2019-05-11T08:16:50.660Z,99.90
2019-05-11T08:19:20.897Z,99.90
2019-05-11T08:21:51.233Z,99.90
2019-05-11T08:24:20.910Z,99.90
2019-05-11T08:26:50.763Z,99.90
2019-05-11T08:29:20.146Z,99.90
2019-05-11T08:31:49.428Z,99.90
2019-05-11T08:34:19.052Z,99.90
2019-05-11T08:36:48.722Z,99.90
2019-05-11T08:39:18.322Z,99.90
2019-05-11T08:41:48.737Z,99.90
2019-05-11T08:44:18.644Z,99.90
2019-05-11T08:46:48.682Z,99.90
2019-05-11T08:49:19.006Z,99.90
2019-05-11T08:51:49.369Z,99.90
2019-05-11T08:54:19.029Z,99.90
2019-05-11T08:56:48.751Z,99.90
2019-05-11T08:59:18.857Z,99.90
2019-05-11T09:01:48.619Z,99.90
2019-05-11T09:04:18.524Z,99.90
2019-05-11T09:06:48.149Z,99.90
2019-05-11T09:09:18.067Z,99.90
2019-05-11T09:11:48.156Z,99.90
2019-05-11T09:14:18.877Z,99.90
2019-05-11T09:16:48.981Z,99.90
2019-05-11T09:19:18.711Z,99.90
2019-05-11T09:21:48.410Z,99.90
2019-05-11T09:24:19.048Z,99.90
2019-05-11T09:26:49.040Z,99.90
2019-05-11T09:29:18.812Z,99.90
2019-05-11T09:31:48.714Z,99.90
2019-05-11T09:34:18.474Z,99.90
2019-05-11T09:36:48.149Z,99.90
2019-05-11T09:39:18.420Z,99.90
2019-05-11T09:41:48.915Z,99.90
2019-05-11T09:44:18.582Z,99.90
2019-05-11T09:46:48.172Z,99.90
2019-05-11T09:49:18.571Z,99.90
2019-05-11T09:51:48.712Z,99.90
2019-05-11T09:54:18.369Z,99.90
2019-05-11T09:56:48.635Z,99.90
2019-05-11T09:59:19.430Z,99.90
2019-05-11T10:01:49.437Z,95.90
2019-05-11T10:04:18.668Z,99.90
2019-05-11T10:06:48.294Z,99.90
2019-05-11T10:09:18.668Z,99.90
2019-05-11T10:11:48.178Z,99.90
2019-05-11T10:14:18.716Z,99.90
2019-05-11T10:16:49.167Z,99.90
2019-05-11T10:19:19.761Z,95.30
2019-05-11T10:21:50.035Z,94.20
2019-05-11T10:24:19.641Z,99.90
2019-05-11T10:26:49.427Z,99.60
2019-05-11T10:29:19.267Z,99.90
2019-05-11T10:31:48.630Z,98.80
2019-05-11T10:34:18.296Z,90.30
2019-05-11T10:36:48.664Z,77.20
2019-05-11T10:39:18.817Z,88.70
2019-05-11T10:41:48.909Z,85.00
2019-05-11T10:44:18.924Z,90.10
2019-05-11T10:46:48.972Z,70.70
2019-05-11T10:49:19.106Z,85.30
2019-05-11T10:51:49.023Z,73.90
2019-05-11T10:54:18.946Z,76.70
2019-05-11T10:56:49.296Z,62.60
2019-05-11T10:59:18.955Z,66.00
2019-05-11T11:01:48.545Z,85.00
2019-05-11T11:04:18.561Z,73.60
2019-05-11T11:06:48.678Z,75.70
2019-05-11T11:09:18.727Z,63.90
2019-05-11T11:11:49.033Z,63.00
2019-05-11T11:14:18.711Z,58.40
2019-05-11T11:16:48.389Z,63.60
2019-05-11T11:19:18.511Z,54.70
2019-05-11T11:21:48.876Z,55.70
2019-05-11T11:24:18.543Z,57.80
2019-05-11T11:26:48.740Z,59.30
2019-05-11T11:29:18.632Z,58.30
2019-05-11T11:31:48.304Z,62.10
2019-05-11T11:34:18.770Z,59.10
2019-05-11T11:36:48.647Z,55.50
2019-05-11T11:39:18.856Z,56.00
2019-05-11T11:41:49.365Z,56.90
2019-05-11T11:44:18.739Z,59.40
2019-05-11T11:46:54.914Z,50.80
2019-05-11T11:49:20.340Z,51.80
2019-05-11T11:51:49.810Z,48.50
2019-05-11T11:54:20.024Z,49.10
2019-05-11T11:56:49.971Z,48.00
2019-05-11T11:59:19.753Z,43.80
2019-05-11T12:01:49.287Z,44.30
2019-05-11T12:04:18.968Z,46.30
2019-05-11T12:06:49.176Z,43.90
2019-05-11T12:09:19.146Z,44.40
2019-05-11T12:11:49.997Z,46.50
2019-05-11T12:14:19.242Z,45.20
2019-05-11T12:17:03.676Z,46.40
2019-05-11T12:19:21.185Z,49.50
2019-05-11T12:21:51.512Z,44.30
2019-05-11T12:24:21.480Z,44.30
2019-05-11T12:26:50.764Z,41.50
2019-05-11T13:00:13.810Z,42.10
2019-05-11T13:02:43.513Z,39.70
2019-05-11T13:05:13.068Z,37.00
2019-05-11T13:07:43.140Z,38.70
2019-05-11T13:10:13.128Z,37.30
2019-05-11T13:12:43.171Z,39.80
2019-05-11T13:15:13.118Z,41.40
2019-05-11T13:17:42.793Z,41.10
2019-05-11T13:20:13.284Z,39.20
2019-05-11T13:22:42.934Z,39.10
2019-05-11T13:25:13.263Z,40.30
2019-05-11T13:27:42.919Z,39.10
2019-05-11T13:30:13.218Z,37.20
2019-05-11T13:32:42.860Z,36.60
2019-05-11T13:35:12.896Z,34.60
2019-05-11T13:37:42.538Z,36.30
2019-05-11T13:40:12.059Z,37.70
2019-05-11T13:42:41.994Z,37.90
2019-05-11T13:45:12.780Z,39.10
2019-05-11T13:47:52.567Z,37.50
2019-05-11T13:50:14.016Z,39.40
2019-05-11T13:52:44.219Z,40.60
2019-05-11T13:55:14.249Z,39.90
2019-05-11T13:57:43.902Z,40.40
2019-05-11T14:00:13.882Z,41.80
2019-05-11T14:02:43.564Z,43.70
2019-05-11T14:05:13.229Z,43.00
2019-05-11T14:07:43.263Z,42.20
2019-05-11T14:10:13.137Z,43.30
2019-05-11T14:12:43.064Z,40.90
2019-05-11T14:15:12.752Z,40.90
2019-05-11T14:17:42.451Z,38.80
2019-05-11T14:20:12.215Z,39.40
2019-05-11T14:22:44.881Z,39.90
2019-05-11T14:25:14.920Z,41.10
2019-05-11T14:27:44.703Z,44.00
2019-05-11T14:30:14.398Z,41.40
2019-05-11T14:32:44.335Z,39.00
2019-05-11T14:35:14.052Z,39.90
2019-05-11T14:37:44.067Z,42.90
2019-05-11T14:40:14.015Z,40.90
2019-05-11T14:42:43.647Z,39.30
2019-05-11T14:45:13.244Z,40.70
2019-05-11T14:47:42.895Z,45.10
2019-05-11T14:50:13.381Z,45.30
2019-05-11T14:52:43.043Z,45.00
2019-05-11T14:55:12.326Z,43.30
2019-05-11T14:57:42.033Z,42.70
2019-05-11T15:00:11.683Z,44.20
2019-05-11T15:02:49.072Z,43.60
2019-05-11T15:05:19.241Z,41.90
2019-05-11T15:07:52.015Z,44.70
2019-05-11T15:10:20.432Z,41.60
2019-05-11T15:12:49.729Z,42.10
2019-05-11T15:15:19.747Z,45.30
2019-05-11T15:17:49.611Z,41.80
2019-05-11T15:20:20.501Z,44.80
2019-05-11T15:22:50.150Z,44.40
2019-05-11T15:25:19.935Z,45.20
2019-05-11T15:27:49.339Z,45.50
2019-05-11T15:30:18.641Z,43.50
2019-05-11T15:32:48.562Z,41.90
2019-05-11T15:35:18.547Z,43.50
2019-05-11T15:37:49.219Z,46.80
2019-05-11T15:40:20.073Z,46.10
2019-05-11T15:42:49.740Z,49.20
2019-05-11T15:45:19.279Z,51.90
2019-05-11T15:47:49.561Z,52.70
2019-05-11T15:50:20.943Z,50.40
2019-05-11T15:52:50.573Z,54.10
2019-05-11T15:55:19.939Z,54.40
2019-05-11T15:57:50.291Z,56.30
2019-05-11T16:00:20.835Z,53.20
2019-05-11T16:02:51.086Z,54.30
2019-05-11T16:05:21.013Z,56.50
2019-05-11T16:07:50.601Z,58.10
2019-05-11T16:10:20.520Z,59.70
2019-05-11T16:12:49.831Z,60.00
2019-05-11T16:15:19.906Z,64.70
2019-05-11T16:17:50.008Z,60.40
2019-05-11T16:20:20.285Z,56.00
2019-05-11T16:22:49.862Z,59.70
2019-05-11T16:25:20.270Z,63.40
2019-05-11T16:27:50.192Z,56.80
2019-05-11T16:30:21.685Z,58.90
2019-05-11T16:32:51.721Z,61.00
2019-05-11T16:35:21.790Z,56.10
2019-05-11T16:37:51.069Z,63.50
2019-05-11T16:40:21.272Z,61.60
2019-05-11T16:42:51.173Z,57.50
2019-05-11T16:45:23.914Z,74.50
2019-05-11T16:47:52.761Z,95.00
2019-05-11T16:50:22.670Z,60.20
2019-05-11T16:52:52.290Z,65.40
2019-05-11T16:55:21.866Z,65.50
2019-05-11T16:57:51.412Z,78.00
2019-05-11T17:00:22.685Z,75.10
2019-05-11T17:02:52.410Z,81.60
2019-05-11T17:05:26.790Z,84.50
2019-05-11T17:07:53.742Z,92.30
2019-05-11T17:10:23.049Z,86.20
2019-05-11T17:12:52.296Z,90.80
2019-05-11T17:15:21.966Z,93.60
2019-05-11T17:17:51.228Z,94.20
2019-05-11T17:20:20.871Z,98.30
2019-05-11T17:22:53.807Z,95.20
2019-05-11T17:25:22.893Z,99.90
2019-05-11T17:27:52.498Z,93.80
2019-05-11T17:30:22.156Z,97.70
2019-05-11T17:32:52.155Z,99.90
2019-05-11T17:35:21.852Z,99.90
2019-05-11T17:37:51.765Z,99.90
2019-05-11T17:40:23.561Z,99.50
2019-05-11T17:42:53.814Z,99.90
2019-05-11T17:45:24.399Z,99.90
2019-05-11T17:47:54.061Z,99.90
2019-05-11T17:50:23.598Z,99.90
2019-05-11T17:52:53.206Z,99.90
2019-05-11T17:55:22.740Z,99.90
2019-05-11T17:57:54.083Z,99.90
2019-05-11T18:00:24.298Z,99.90
2019-05-11T18:02:54.285Z,99.90
2019-05-11T18:05:23.859Z,99.90
2019-05-11T18:07:53.104Z,99.90
2019-05-11T18:10:23.451Z,99.90
2019-05-11T18:12:52.718Z,99.90
2019-05-11T18:15:22.420Z,99.90
2019-05-11T18:17:52.119Z,99.90
2019-05-11T18:20:22.361Z,99.90
2019-05-11T18:22:52.349Z,99.90
2019-05-11T18:25:21.673Z,99.90
2019-05-11T18:27:51.637Z,99.90
2019-05-11T18:30:20.935Z,99.90
2019-05-11T18:32:50.241Z,99.90
2019-05-11T18:35:19.948Z,99.90
2019-05-11T18:37:50.000Z,99.90
2019-05-11T18:40:20.313Z,99.90
2019-05-11T18:42:50.260Z,99.90
2019-05-11T18:45:20.877Z,99.90
2019-05-11T18:47:50.508Z,99.90
2019-05-11T18:50:30.507Z,99.90
2019-05-11T18:52:52.258Z,99.90
2019-05-11T18:55:22.210Z,99.90
2019-05-11T18:57:52.224Z,99.90
2019-05-11T19:00:21.820Z,99.90
2019-05-11T19:02:51.471Z,99.90
2019-05-11T19:05:20.806Z,99.90
2019-05-11T19:07:50.523Z,99.90
2019-05-11T19:10:19.845Z,99.90
2019-05-11T19:12:50.128Z,99.90
2019-05-11T19:15:19.524Z,99.90
2019-05-11T19:17:49.331Z,99.90
2019-05-11T19:20:19.653Z,99.90
2019-05-11T19:22:49.491Z,99.90
2019-05-11T19:25:19.506Z,99.90
2019-05-11T19:27:50.794Z,99.90
2019-05-11T19:30:20.668Z,99.90
2019-05-11T19:32:50.419Z,99.90
2019-05-11T19:35:21.013Z,99.90
2019-05-11T19:37:51.056Z,99.90
2019-05-11T19:40:20.728Z,99.90
2019-05-11T19:42:54.712Z,99.90
2019-05-11T19:45:24.740Z,99.90
2019-05-11T19:47:54.619Z,99.90
2019-05-11T19:50:24.622Z,99.90
2019-05-11T19:52:54.340Z,99.90
2019-05-11T19:55:24.012Z,99.90
2019-05-11T19:57:53.384Z,99.90
2019-05-11T20:00:23.032Z,99.90
2019-05-11T20:02:52.424Z,99.90
2019-05-11T20:05:22.183Z,99.90
2019-05-11T20:07:51.602Z,99.90
2019-05-11T20:10:21.335Z,99.90
2019-05-11T20:12:50.715Z,99.90
2019-05-11T20:15:20.765Z,99.90
2019-05-11T20:17:50.971Z,99.90
2019-05-11T20:20:20.338Z,99.90
2019-05-11T20:22:49.692Z,99.90
2019-05-11T20:25:19.506Z,99.90
2019-05-11T20:27:49.367Z,99.90
2019-05-11T20:30:19.108Z,99.90
2019-05-11T20:32:49.627Z,99.90
2019-05-11T20:35:19.541Z,99.90
2019-05-11T20:37:49.256Z,99.90
2019-05-11T20:40:19.058Z,99.90
2019-05-11T20:42:49.242Z,99.90
2019-05-11T20:45:19.386Z,99.90
2019-05-11T20:47:49.468Z,99.90
2019-05-11T20:50:19.203Z,99.90
2019-05-11T20:52:49.642Z,99.90
2019-05-11T20:55:19.340Z,99.90
2019-05-11T20:57:49.251Z,99.90
2019-05-11T21:00:19.494Z,99.90
2019-05-11T21:02:49.393Z,99.90
2019-05-11T21:05:19.225Z,99.90
2019-05-11T21:07:49.238Z,99.90
2019-05-11T21:10:18.620Z,99.90
2019-05-11T21:12:48.850Z,99.90
2019-05-11T21:15:18.163Z,99.90
2019-05-11T21:17:50.537Z,99.90
2019-05-11T21:20:19.715Z,99.90
2019-05-11T21:22:49.514Z,99.90
2019-05-11T21:25:18.848Z,99.90
2019-05-11T21:27:48.860Z,99.90
2019-05-11T21:30:18.749Z,99.90
2019-05-11T21:32:48.382Z,99.90
2019-05-11T21:35:19.146Z,99.90
2019-05-11T21:37:49.298Z,99.90
2019-05-11T21:40:19.192Z,99.90
2019-05-11T21:42:49.515Z,99.90
2019-05-11T21:45:19.154Z,99.90
2019-05-11T21:47:49.460Z,99.90
2019-05-11T21:50:19.414Z,99.90
2019-05-11T21:52:49.401Z,99.90
2019-05-11T21:55:18.797Z,99.90
2019-05-11T21:57:49.834Z,99.90
2019-05-11T22:00:20.123Z,99.90
2019-05-11T22:02:50.209Z,99.90
2019-05-11T22:05:20.867Z,99.90
2019-05-11T22:07:50.508Z,99.90
2019-05-11T22:10:20.585Z,99.90
2019-05-11T22:12:50.384Z,99.90
2019-05-11T22:15:20.639Z,99.90
2019-05-11T22:17:49.978Z,99.90
2019-05-11T22:20:19.299Z,99.90
2019-05-11T22:22:49.352Z,99.90
2019-05-11T22:25:19.627Z,99.90
2019-05-11T22:27:50.004Z,99.90
2019-05-11T22:30:20.019Z,99.90
2019-05-11T22:32:49.615Z,99.90
2019-05-11T22:35:20.077Z,99.90
2019-05-11T22:37:49.336Z,99.90
2019-05-11T22:40:18.767Z,99.90
2019-05-11T22:42:48.114Z,99.90
2019-05-11T22:45:18.633Z,99.90
2019-05-11T22:47:48.646Z,99.90
2019-05-11T22:50:18.814Z,99.90
2019-05-11T22:52:48.809Z,99.90
2019-05-11T22:55:19.123Z,99.90
2019-05-11T22:57:49.339Z,99.90
2019-05-11T23:00:22.634Z,99.90
2019-05-11T23:02:52.004Z,99.90
2019-05-11T23:05:21.611Z,99.90
2019-05-11T23:07:51.183Z,99.90
2019-05-11T23:10:21.277Z,99.90
2019-05-11T23:12:51.513Z,99.90
2019-05-11T23:15:21.139Z,99.90
2019-05-11T23:17:51.040Z,99.90
2019-05-11T23:20:21.032Z,99.90
2019-05-11T23:22:57.353Z,99.90
2019-05-11T23:25:22.705Z,99.90
2019-05-11T23:27:51.919Z,99.90
2019-05-11T23:30:22.073Z,99.90
2019-05-11T23:32:51.392Z,99.90
2019-05-11T23:35:21.061Z,99.90
2019-05-11T23:37:50.792Z,99.90
2019-05-11T23:40:20.822Z,99.90
2019-05-11T23:42:50.169Z,99.90
2019-05-11T23:45:19.814Z,99.90
2019-05-11T23:47:49.513Z,99.90
2019-05-11T23:50:19.522Z,99.90
2019-05-11T23:53:05.111Z,99.90
2019-05-11T23:55:21.576Z,99.90
2019-05-11T23:57:51.583Z,99.90
